Time;durP1;ratioP1;P1;durP2;ratioP2;P2;SDS_P1;SDS_P2;PMS_P1;PMS_P2;Temp;Humidity;BMP_temperature;BMP_pressure;BME280_temperature;BME280_humidity;BME280_pressure;Samples;Min_cycle;Max_cycle;Signal;HPM_P1;HPM_P2
2021/06/27 00:01:41;;;;;;;14.03;12.40;;;18.20;99.90;;;;;;4944283;29;20188;-50
2021/06/27 00:04:08;;;;;;;13.65;12.15;;;18.10;99.90;;;;;;4944290;28;20176;-49
2021/06/27 00:06:34;;;;;;;12.82;11.70;;;18.10;99.90;;;;;;4946735;28;20199;-50
2021/06/27 00:08:59;;;;;;;12.83;11.73;;;18.20;99.90;;;;;;4943302;28;20298;-49
2021/06/27 00:11:25;;;;;;;12.70;11.40;;;18.00;99.90;;;;;;4968590;28;20192;-49
2021/06/27 00:13:51;;;;;;;12.80;11.70;;;18.00;99.90;;;;;;4951009;28;20713;-50
2021/06/27 00:16:18;;;;;;;12.07;10.82;;;17.90;99.90;;;;;;4949098;29;20184;-49
2021/06/27 00:18:44;;;;;;;12.80;11.60;;;17.90;99.90;;;;;;4938775;29;20235;-51
2021/06/27 00:21:12;;;;;;;12.43;11.20;;;17.90;99.90;;;;;;4951477;28;20650;-51
2021/06/27 00:23:42;;;;;;;14.70;12.77;;;17.90;99.90;;;;;;4943907;28;20191;-50
2021/06/27 00:26:14;;;;;;;15.65;11.88;;;17.80;99.90;;;;;;4956433;28;20203;-50
2021/06/27 00:28:41;;;;;;;13.10;11.80;;;17.80;99.90;;;;;;4941542;28;20218;-50
2021/06/27 00:31:06;;;;;;;12.68;11.63;;;17.80;99.90;;;;;;4948915;28;20668;-50
2021/06/27 00:33:32;;;;;;;13.10;11.80;;;17.90;99.90;;;;;;4946218;28;20204;-50
2021/06/27 00:35:58;;;;;;;14.50;13.10;;;17.70;99.90;;;;;;4954052;28;20286;-50
2021/06/27 00:38:24;;;;;;;13.23;12.03;;;17.70;99.90;;;;;;4955094;28;20287;-50
2021/06/27 00:40:51;;;;;;;14.25;12.45;;;17.70;99.90;;;;;;4952768;28;20240;-50
2021/06/27 00:43:17;;;;;;;13.98;12.55;;;17.60;99.90;;;;;;4954981;28;20207;-50
2021/06/27 00:45:43;;;;;;;13.30;11.97;;;17.50;99.90;;;;;;4951690;28;20634;-50
2021/06/27 00:48:09;;;;;;;12.50;11.40;;;17.70;99.90;;;;;;4951393;28;21044;-50
2021/06/27 00:50:37;;;;;;;12.90;11.50;;;17.60;99.90;;;;;;4950551;28;20251;-50
2021/06/27 00:53:03;;;;;;;12.80;11.63;;;17.50;99.90;;;;;;4940725;29;20212;-50
2021/06/27 00:55:28;;;;;;;12.82;11.52;;;17.40;99.90;;;;;;4947050;28;20189;-50
2021/06/27 00:57:55;;;;;;;12.83;11.53;;;17.50;99.90;;;;;;4950985;28;20211;-50
2021/06/27 01:00:26;;;;;;;12.68;11.25;;;17.50;99.90;;;;;;4947011;28;20272;-50
2021/06/27 01:02:52;;;;;;;13.60;12.27;;;17.40;99.90;;;;;;4947418;28;20212;-50
2021/06/27 01:05:21;;;;;;;12.67;11.50;;;17.40;99.90;;;;;;4948437;28;20641;-50
2021/06/27 01:07:47;;;;;;;12.93;11.77;;;17.50;99.90;;;;;;4954008;28;20259;-49
2021/06/27 01:10:13;;;;;;;13.18;11.85;;;17.40;99.90;;;;;;4946986;28;20542;-50
2021/06/27 01:12:39;;;;;;;13.25;12.00;;;17.40;99.90;;;;;;4944634;28;20668;-50
2021/06/27 01:15:07;;;;;;;13.20;11.90;;;17.40;99.90;;;;;;4949535;28;20200;-50
2021/06/27 01:17:33;;;;;;;12.13;10.93;;;17.40;99.90;;;;;;4945918;28;20681;-50
2021/06/27 01:19:59;;;;;;;11.88;10.77;;;17.50;99.90;;;;;;4966329;28;20673;-50
2021/06/27 01:22:26;;;;;;;13.10;11.90;;;17.20;99.90;;;;;;4947520;28;20705;-50
2021/06/27 01:24:52;;;;;;;13.40;11.98;;;17.10;99.90;;;;;;4954089;28;20921;-49
2021/06/27 01:27:17;;;;;;;12.70;11.50;;;17.40;99.90;;;;;;4948313;29;20216;-49
2021/06/27 01:29:43;;;;;;;13.17;11.97;;;17.10;99.90;;;;;;4954753;28;20188;-50
2021/06/27 01:32:11;;;;;;;12.60;11.47;;;17.30;99.90;;;;;;4948113;28;20188;-50
2021/06/27 01:34:43;;;;;;;12.00;10.80;;;17.30;99.90;;;;;;4953389;28;20299;-50
2021/06/27 01:37:09;;;;;;;12.07;10.88;;;17.20;99.90;;;;;;4945585;29;20270;-50
2021/06/27 01:39:35;;;;;;;12.13;10.90;;;17.10;99.90;;;;;;4955689;28;20275;-50
2021/06/27 01:42:01;;;;;;;13.13;11.82;;;17.30;99.90;;;;;;4966481;28;20234;-49
2021/06/27 01:44:27;;;;;;;12.23;11.02;;;17.30;99.90;;;;;;4950854;28;20719;-50
2021/06/27 01:46:56;;;;;;;12.83;11.73;;;17.30;99.90;;;;;;4950357;28;20275;-50
2021/06/27 01:49:22;;;;;;;13.65;10.90;;;17.30;99.90;;;;;;4959811;28;20330;-50
2021/06/27 01:51:48;;;;;;;11.23;10.23;;;17.10;99.90;;;;;;4952556;28;20290;-49
2021/06/27 01:54:13;;;;;;;11.17;10.07;;;17.30;99.90;;;;;;4941119;28;20354;-50
2021/06/27 01:56:45;;;;;;;11.43;10.23;;;17.30;99.90;;;;;;4952301;28;20215;-50
2021/06/27 01:59:13;;;;;;;12.45;11.15;;;17.20;99.90;;;;;;4946559;28;20723;-50
2021/06/27 02:01:40;;;;;;;11.45;10.35;;;17.00;99.90;;;;;;4950124;28;20196;-49
2021/06/27 02:04:07;;;;;;;13.60;10.40;;;17.10;99.90;;;;;;4951673;28;20211;-49
2021/06/27 02:06:37;;;;;;;11.38;10.35;;;17.20;99.90;;;;;;4945354;28;20177;-50
2021/06/27 02:09:06;;;;;;;11.80;10.65;;;17.30;99.90;;;;;;4946922;28;20204;-50
2021/06/27 02:11:32;;;;;;;11.18;10.18;;;16.90;99.90;;;;;;4945058;28;20203;-50
2021/06/27 02:13:58;;;;;;;10.95;9.82;;;16.90;99.90;;;;;;4953052;28;20220;-50
2021/06/27 02:16:24;;;;;;;11.23;10.13;;;16.90;99.90;;;;;;4951086;28;20292;-50
2021/06/27 02:18:51;;;;;;;12.82;11.63;;;17.00;99.90;;;;;;4950731;28;20476;-50
2021/06/27 02:21:30;;;;;;;11.27;10.18;;;16.90;99.90;;;;;;4944141;28;20185;-49
2021/06/27 02:23:56;;;;;;;10.57;9.68;;;16.80;99.90;;;;;;4970077;28;20275;-50
2021/06/27 02:26:25;;;;;;;11.50;10.40;;;16.90;99.90;;;;;;4952622;28;20212;-49
2021/06/27 02:28:50;;;;;;;11.90;10.80;;;17.30;99.90;;;;;;4948663;28;20204;-52
2021/06/27 02:31:17;;;;;;;11.83;10.63;;;17.00;99.90;;;;;;4950458;28;20539;-50
2021/06/27 02:33:44;;;;;;;12.10;11.00;;;17.00;99.90;;;;;;4945977;28;20211;-49
2021/06/27 02:36:10;;;;;;;11.23;10.13;;;16.90;99.90;;;;;;4951338;28;20294;-49
2021/06/27 02:38:36;;;;;;;10.83;9.67;;;17.30;99.90;;;;;;4946244;28;20524;-49
2021/06/27 02:41:04;;;;;;;12.80;11.50;;;17.10;99.90;;;;;;4949449;28;20787;-49
2021/06/27 02:43:29;;;;;;;11.20;10.18;;;17.10;99.90;;;;;;4950541;28;20185;-50
2021/06/27 02:45:55;;;;;;;11.07;10.17;;;17.00;99.90;;;;;;4947804;28;20699;-49
2021/06/27 02:48:21;;;;;;;11.43;10.33;;;17.20;99.90;;;;;;4938441;28;20750;-50
2021/06/27 02:50:47;;;;;;;12.30;10.53;;;17.20;99.90;;;;;;4953138;28;20254;-49
2021/06/27 02:53:13;;;;;;;11.63;10.60;;;17.00;99.90;;;;;;4947830;28;20501;-49
2021/06/27 02:55:38;;;;;;;11.23;10.13;;;17.00;99.90;;;;;;4949284;28;20192;-50
2021/06/27 02:58:04;;;;;;;10.47;9.43;;;16.80;99.90;;;;;;4949316;28;20299;-50
2021/06/27 03:00:30;;;;;;;10.20;9.30;;;16.90;99.90;;;;;;4946505;29;20198;-49
2021/06/27 03:02:57;;;;;;;11.38;10.27;;;16.80;99.90;;;;;;4948234;29;20475;-50
2021/06/27 03:05:23;;;;;;;12.25;10.60;;;16.90;99.90;;;;;;4945100;28;20188;-49
2021/06/27 03:07:49;;;;;;;10.67;9.67;;;17.10;99.90;;;;;;4945364;28;20678;-49
2021/06/27 03:10:17;;;;;;;13.00;11.87;;;16.70;99.90;;;;;;4948201;29;20448;-49
2021/06/27 03:12:45;;;;;;;11.18;10.02;;;16.80;99.90;;;;;;4953127;28;20231;-50
2021/06/27 03:15:16;;;;;;;11.23;10.23;;;16.80;99.90;;;;;;4955768;28;20210;-49
2021/06/27 03:17:42;;;;;;;15.05;10.15;;;16.70;99.90;;;;;;4950640;28;20243;-50
2021/06/27 03:20:10;;;;;;;11.40;10.40;;;16.90;99.90;;;;;;4943151;29;20193;-50
2021/06/27 03:22:36;;;;;;;10.85;9.85;;;16.60;99.90;;;;;;4953615;28;20192;-49
2021/06/27 03:25:04;;;;;;;11.63;10.55;;;16.60;99.90;;;;;;4951528;28;20238;-49
2021/06/27 03:27:30;;;;;;;10.52;9.63;;;16.50;99.90;;;;;;4944063;28;20212;-50
2021/06/27 03:29:56;;;;;;;11.88;10.77;;;16.70;99.90;;;;;;4945788;29;20328;-49
2021/06/27 03:32:22;;;;;;;10.53;9.53;;;16.70;99.90;;;;;;4946744;28;20280;-49
2021/06/27 03:34:48;;;;;;;11.40;10.40;;;16.80;99.90;;;;;;4942390;28;20470;-49
2021/06/27 03:37:13;;;;;;;11.03;10.03;;;16.70;99.90;;;;;;4947919;28;20187;-49
2021/06/27 03:39:39;;;;;;;10.53;9.53;;;16.70;99.90;;;;;;4946591;28;20550;-50
2021/06/27 03:42:05;;;;;;;12.53;10.40;;;16.50;99.90;;;;;;4946676;28;20223;-50
2021/06/27 03:44:31;;;;;;;10.25;9.35;;;16.80;99.90;;;;;;4941027;28;20191;-50
2021/06/27 03:46:57;;;;;;;11.50;10.00;;;17.00;99.90;;;;;;4940910;28;20658;-50
2021/06/27 03:49:23;;;;;;;10.77;9.77;;;16.90;99.90;;;;;;4951699;28;20204;-50
2021/06/27 03:51:49;;;;;;;10.93;9.88;;;16.50;99.90;;;;;;4964115;28;20440;-49
2021/06/27 03:54:15;;;;;;;11.63;10.60;;;16.60;99.90;;;;;;4948583;28;20203;-49
2021/06/27 03:56:41;;;;;;;11.10;10.10;;;16.70;99.90;;;;;;4941395;28;20447;-50
2021/06/27 03:59:08;;;;;;;10.60;9.50;;;16.40;99.90;;;;;;4949939;28;20219;-50
2021/06/27 04:01:34;;;;;;;10.85;9.90;;;16.60;99.90;;;;;;4948834;28;20526;-50
2021/06/27 04:04:00;;;;;;;12.30;10.13;;;16.70;99.90;;;;;;4953019;28;20222;-50
2021/06/27 04:06:26;;;;;;;10.73;9.73;;;16.70;99.90;;;;;;4948457;28;20447;-50
2021/06/27 04:08:52;;;;;;;10.35;9.35;;;16.90;99.90;;;;;;4946777;28;20299;-51
2021/06/27 04:11:18;;;;;;;10.83;9.73;;;16.80;99.90;;;;;;4951505;28;20283;-52
2021/06/27 04:13:43;;;;;;;9.57;8.67;;;16.90;99.90;;;;;;4946746;28;20204;-52
2021/06/27 04:16:09;;;;;;;11.93;10.83;;;16.70;99.90;;;;;;4949105;28;20275;-50
2021/06/27 04:18:36;;;;;;;10.40;9.50;;;16.80;99.90;;;;;;4946061;28;20308;-52
2021/06/27 04:21:04;;;;;;;11.27;10.27;;;16.90;99.90;;;;;;4949958;28;20523;-50
2021/06/27 04:23:31;;;;;;;10.63;9.73;;;17.30;99.90;;;;;;4948953;28;20331;-53
2021/06/27 04:25:57;;;;;;;9.60;8.80;;;17.00;99.90;;;;;;4951635;28;20246;-51
2021/06/27 04:28:23;;;;;;;10.83;9.83;;;17.10;99.90;;;;;;4949845;28;20689;-50
2021/06/27 04:30:48;;;;;;;10.02;9.02;;;17.00;99.90;;;;;;4948213;28;20215;-50
2021/06/27 04:33:15;;;;;;;10.67;9.70;;;17.10;99.90;;;;;;4946206;28;20650;-52
2021/06/27 04:35:41;;;;;;;10.60;9.70;;;17.20;99.90;;;;;;4949427;28;20436;-50
2021/06/27 04:38:10;;;;;;;11.32;10.23;;;17.50;99.90;;;;;;4948304;28;20243;-49
2021/06/27 04:40:37;;;;;;;10.38;9.48;;;17.30;99.90;;;;;;4946089;28;20332;-49
2021/06/27 04:43:04;;;;;;;9.30;8.38;;;17.30;99.90;;;;;;4947598;28;20185;-49
2021/06/27 04:45:30;;;;;;;9.93;9.02;;;17.50;99.90;;;;;;4944406;28;20729;-50
2021/06/27 04:47:57;;;;;;;10.10;8.02;;;17.50;99.90;;;;;;4945233;28;20208;-50
2021/06/27 04:50:23;;;;;;;9.20;8.30;;;17.70;99.90;;;;;;4943447;28;22116;-50
2021/06/27 04:52:52;;;;;;;9.27;8.37;;;17.80;99.90;;;;;;4948970;28;20218;-50
2021/06/27 04:55:21;;;;;;;9.80;8.75;;;17.90;99.90;;;;;;4944738;28;20311;-51
2021/06/27 04:57:47;;;;;;;9.15;8.38;;;18.10;99.90;;;;;;4945527;28;20209;-52
2021/06/27 05:00:14;;;;;;;8.60;7.80;;;18.40;99.90;;;;;;4949478;28;20200;-51
2021/06/27 05:02:40;;;;;;;8.55;7.85;;;18.30;99.90;;;;;;4947972;28;20206;-49
2021/06/27 05:05:06;;;;;;;9.00;8.20;;;18.30;99.90;;;;;;4966398;28;20646;-49
2021/06/27 05:07:32;;;;;;;9.00;8.10;;;18.50;99.90;;;;;;4947625;28;20502;-50
2021/06/27 05:09:58;;;;;;;9.17;8.37;;;18.50;99.90;;;;;;4947430;28;20203;-51
2021/06/27 05:12:25;;;;;;;7.60;6.90;;;18.50;99.90;;;;;;4944676;28;21034;-50
2021/06/27 05:14:51;;;;;;;8.65;7.85;;;18.60;99.90;;;;;;4947204;28;20226;-50
2021/06/27 05:17:17;;;;;;;9.20;8.30;;;18.70;99.90;;;;;;4947443;28;20212;-50
2021/06/27 05:19:43;;;;;;;8.87;8.00;;;18.70;99.90;;;;;;4947090;28;20250;-50
2021/06/27 05:22:09;;;;;;;9.00;8.10;;;18.80;99.90;;;;;;4946620;28;20216;-49
2021/06/27 05:24:34;;;;;;;8.10;7.50;;;18.80;99.90;;;;;;4947211;28;20270;-49
2021/06/27 05:27:00;;;;;;;9.37;8.50;;;18.90;99.90;;;;;;4945886;28;20704;-49
2021/06/27 05:29:25;;;;;;;9.30;7.83;;;19.00;99.90;;;;;;4946925;28;20251;-50
2021/06/27 05:31:51;;;;;;;7.57;6.93;;;19.00;99.90;;;;;;4945774;28;20192;-49
2021/06/27 05:34:17;;;;;;;9.40;8.60;;;19.00;99.90;;;;;;4948539;28;20200;-49
2021/06/27 05:36:42;;;;;;;7.20;6.53;;;19.20;99.90;;;;;;4944933;28;20180;-49
2021/06/27 05:39:10;;;;;;;8.00;7.30;;;19.40;99.90;;;;;;4949312;28;20255;-49
2021/06/27 05:41:37;;;;;;;8.20;7.60;;;19.60;99.90;;;;;;4945514;28;20189;-49
2021/06/27 05:44:07;;;;;;;7.40;6.70;;;19.70;99.90;;;;;;4945552;28;20184;-49
2021/06/27 05:46:33;;;;;;;7.88;7.05;;;19.80;99.90;;;;;;4945351;28;20663;-50
2021/06/27 05:48:59;;;;;;;7.90;7.20;;;19.80;99.90;;;;;;4960780;28;20274;-49
2021/06/27 05:51:26;;;;;;;7.72;6.93;;;20.00;99.90;;;;;;4948413;28;20183;-49
2021/06/27 05:53:52;;;;;;;8.30;7.45;;;20.00;99.90;;;;;;4945614;28;20697;-50
2021/06/27 05:56:19;;;;;;;8.52;7.82;;;20.10;99.90;;;;;;4946468;28;21001;-50
2021/06/27 05:58:46;;;;;;;8.48;7.78;;;20.30;99.90;;;;;;4942559;28;20220;-51
2021/06/27 06:01:14;;;;;;;7.85;7.15;;;20.40;99.90;;;;;;4948380;28;20188;-50
2021/06/27 06:03:41;;;;;;;8.00;7.20;;;20.40;99.90;;;;;;4943407;28;20192;-51
2021/06/27 06:06:08;;;;;;;7.78;7.07;;;20.50;99.90;;;;;;4948068;28;20208;-50
2021/06/27 06:08:34;;;;;;;7.90;7.30;;;20.60;99.90;;;;;;4940356;28;20255;-50
2021/06/27 06:11:00;;;;;;;7.60;7.00;;;20.80;99.90;;;;;;4946507;28;20195;-51
2021/06/27 06:13:26;;;;;;;7.73;7.13;;;20.80;99.90;;;;;;4946305;28;20204;-50
2021/06/27 06:15:51;;;;;;;7.45;6.85;;;20.80;99.90;;;;;;4942484;28;20954;-50
2021/06/27 06:18:17;;;;;;;7.60;7.03;;;21.00;99.90;;;;;;4949615;28;20266;-51
2021/06/27 06:20:43;;;;;;;6.87;6.37;;;21.00;99.90;;;;;;4948418;28;20199;-51
2021/06/27 06:23:09;;;;;;;6.40;5.90;;;21.10;99.90;;;;;;4949720;28;20534;-50
2021/06/27 06:25:35;;;;;;;6.97;6.23;;;21.20;99.90;;;;;;4944246;28;20216;-50
2021/06/27 06:28:01;;;;;;;7.57;6.87;;;21.30;99.90;;;;;;4941560;28;20208;-50
2021/06/27 06:30:26;;;;;;;7.10;6.50;;;21.50;99.90;;;;;;4948275;28;20486;-50
2021/06/27 06:32:52;;;;;;;6.87;6.37;;;21.50;99.90;;;;;;4963402;28;20220;-51
2021/06/27 06:35:18;;;;;;;6.67;6.07;;;21.50;99.90;;;;;;4946593;28;20918;-50
2021/06/27 06:37:44;;;;;;;7.33;6.70;;;21.60;99.90;;;;;;4945164;28;20766;-50
2021/06/27 06:40:10;;;;;;;6.70;6.20;;;21.70;99.90;;;;;;4950524;28;20677;-51
2021/06/27 06:42:36;;;;;;;6.95;6.35;;;21.60;99.90;;;;;;4944828;29;20192;-49
2021/06/27 06:45:02;;;;;;;6.33;5.83;;;21.80;99.90;;;;;;4942461;28;20239;-50
2021/06/27 06:47:27;;;;;;;6.28;5.78;;;21.90;99.90;;;;;;4948276;28;20204;-50
2021/06/27 06:49:53;;;;;;;5.90;5.40;;;22.00;99.90;;;;;;4940559;28;20197;-51
2021/06/27 06:52:19;;;;;;;6.53;6.03;;;22.20;99.90;;;;;;4946004;28;20720;-50
2021/06/27 06:54:45;;;;;;;6.77;6.27;;;22.70;99.90;;;;;;4945264;28;20220;-51
2021/06/27 06:57:10;;;;;;;6.43;5.77;;;23.10;99.90;;;;;;4963567;28;20498;-50
2021/06/27 06:59:36;;;;;;;6.70;6.10;;;23.30;99.00;;;;;;4943663;28;20185;-50
2021/06/27 07:02:02;;;;;;;6.23;5.83;;;23.50;98.80;;;;;;4948650;28;20573;-50
2021/06/27 07:04:28;;;;;;;6.43;5.80;;;23.70;98.70;;;;;;4963257;28;20227;-51
2021/06/27 07:06:54;;;;;;;6.37;5.87;;;24.30;98.10;;;;;;4945064;28;20455;-51
2021/06/27 07:09:19;;;;;;;6.40;5.90;;;24.10;96.70;;;;;;4947094;28;20456;-51
2021/06/27 07:11:48;;;;;;;5.73;5.33;;;24.60;96.30;;;;;;4948537;28;20187;-50
2021/06/27 07:14:14;;;;;;;5.90;5.50;;;25.80;95.10;;;;;;4951016;28;20946;-51
2021/06/27 07:16:39;;;;;;;5.30;4.90;;;27.90;91.90;;;;;;4952135;28;20487;-51
2021/06/27 07:19:05;;;;;;;5.73;5.33;;;30.70;85.10;;;;;;4947339;28;20217;-51
2021/06/27 07:21:30;;;;;;;5.37;5.00;;;33.20;72.30;;;;;;4939022;28;20725;-52
2021/06/27 07:23:57;;;;;;;5.07;4.67;;;35.50;62.80;;;;;;4964741;28;20566;-52
2021/06/27 07:26:23;;;;;;;6.80;6.30;;;37.60;55.90;;;;;;4954483;28;20216;-51
2021/06/27 07:28:49;;;;;;;7.30;6.70;;;38.10;52.10;;;;;;4944848;28;21082;-51
2021/06/27 07:31:17;;;;;;;5.93;5.53;;;35.70;54.10;;;;;;4947709;28;20568;-52
2021/06/27 07:33:42;;;;;;;6.10;5.70;;;37.00;53.40;;;;;;4946802;28;20295;-52
2021/06/27 07:36:09;;;;;;;6.33;5.93;;;38.10;49.60;;;;;;4945887;28;21079;-53
2021/06/27 07:38:35;;;;;;;9.53;6.60;;;38.60;50.00;;;;;;4947664;28;20283;-52
2021/06/27 07:41:01;;;;;;;6.73;6.33;;;39.80;46.90;;;;;;4943460;28;20937;-52
2021/06/27 07:43:27;;;;;;;5.90;5.47;;;39.40;46.50;;;;;;4962971;28;20447;-52
2021/06/27 07:45:53;;;;;;;6.50;6.00;;;38.70;47.50;;;;;;4950176;28;20712;-52
2021/06/27 07:48:19;;;;;;;5.83;5.43;;;36.40;48.50;;;;;;4942542;28;20640;-52
2021/06/27 07:50:46;;;;;;;6.47;5.97;;;37.90;48.80;;;;;;4948026;28;20188;-52
2021/06/27 07:53:11;;;;;;;6.67;6.20;;;39.40;45.10;;;;;;4956354;28;20523;-52
2021/06/27 07:55:37;;;;;;;6.90;6.40;;;38.90;47.00;;;;;;4947908;28;20538;-52
2021/06/27 07:58:03;;;;;;;6.33;5.83;;;40.50;44.30;;;;;;4947612;28;20677;-53
2021/06/27 08:00:29;;;;;;;6.03;5.63;;;41.60;42.50;;;;;;4949393;28;20193;-52
2021/06/27 08:02:56;;;;;;;4.80;4.50;;;41.70;40.70;;;;;;4944315;28;20448;-51
2021/06/27 08:05:22;;;;;;;5.20;4.67;;;41.70;40.70;;;;;;4955009;28;20828;-52
2021/06/27 08:07:48;;;;;;;4.67;4.37;;;42.10;40.40;;;;;;4954046;28;20467;-52
2021/06/27 08:10:13;;;;;;;4.67;4.47;;;42.00;40.10;;;;;;4948307;28;20260;-52
2021/06/27 08:12:41;;;;;;;4.80;4.50;;;41.30;40.10;;;;;;4947669;28;20226;-52
2021/06/27 08:15:08;;;;;;;4.40;4.20;;;41.10;39.80;;;;;;4948893;28;20419;-52
2021/06/27 08:17:34;;;;;;;4.50;4.20;;;41.30;40.20;;;;;;4941687;28;20459;-52
2021/06/27 08:20:00;;;;;;;4.50;4.30;;;41.40;39.40;;;;;;4944922;28;20449;-52
2021/06/27 08:22:25;;;;;;;4.13;3.93;;;41.40;39.60;;;;;;4945925;28;20439;-51
2021/06/27 08:24:51;;;;;;;3.97;3.77;;;40.50;39.70;;;;;;4949990;28;20553;-52
2021/06/27 08:27:16;;;;;;;4.47;4.17;;;41.10;39.90;;;;;;4946104;28;20274;-51
2021/06/27 08:29:42;;;;;;;4.63;4.33;;;41.60;38.90;;;;;;4949875;28;20200;-52
2021/06/27 08:32:08;;;;;;;4.57;4.27;;;42.70;37.50;;;;;;4955126;28;20184;-53
2021/06/27 08:34:34;;;;;;;5.20;4.70;;;43.40;36.60;;;;;;4949480;28;20262;-52
2021/06/27 08:36:59;;;;;;;4.60;4.30;;;40.80;38.10;;;;;;4952819;28;20181;-52
2021/06/27 08:39:25;;;;;;;3.80;3.60;;;40.50;39.60;;;;;;4941291;28;20271;-51
2021/06/27 08:41:51;;;;;;;4.27;4.07;;;41.60;36.90;;;;;;4953142;28;20695;-52
2021/06/27 08:44:17;;;;;;;4.37;3.97;;;39.60;39.00;;;;;;4955024;28;20222;-52
2021/06/27 08:46:44;;;;;;;4.17;3.97;;;39.30;40.70;;;;;;4951083;28;20681;-52
2021/06/27 08:49:12;;;;;;;3.80;3.57;;;39.50;40.10;;;;;;4948204;28;20463;-52
2021/06/27 08:51:41;;;;;;;4.10;3.90;;;40.30;39.00;;;;;;4945410;28;20443;-51
2021/06/27 08:54:08;;;;;;;4.00;3.80;;;40.40;38.70;;;;;;4946727;28;20498;-52
2021/06/27 08:56:34;;;;;;;4.30;4.00;;;40.70;37.80;;;;;;4949256;28;20950;-52
2021/06/27 08:59:00;;;;;;;4.40;4.00;;;41.20;37.50;;;;;;4944976;29;20452;-51
2021/06/27 09:01:26;;;;;;;3.73;3.53;;;41.60;36.70;;;;;;4942540;28;20874;-53
2021/06/27 09:03:53;;;;;;;4.20;3.90;;;41.60;36.60;;;;;;4953656;28;20479;-51
2021/06/27 09:06:29;;;;;;;4.00;3.73;;;40.80;37.10;;;;;;4946920;28;20487;-52
2021/06/27 09:09:14;;;;;;;4.03;3.73;;;40.40;37.60;;;;;;4957372;28;20987;-52
2021/06/27 09:11:57;;;;;;;4.00;3.80;;;40.20;38.00;;;;;;4951427;28;20525;-52
2021/06/27 09:14:44;;;;;;;3.97;3.67;;;41.00;37.50;;;;;;4954374;28;20475;-52
2021/06/27 09:17:19;;;;;;;4.83;4.43;;;41.00;36.60;;;;;;4943846;28;20913;-52
2021/06/27 09:20:20;;;;;;;4.07;3.87;;;39.80;38.10;;;;;;4950083;28;20442;-51
2021/06/27 09:22:51;;;;;;;4.60;4.30;;;38.30;39.90;;;;;;4876281;29;20449;-52
2021/06/27 09:25:25;;;;;;;4.13;3.93;;;39.30;39.10;;;;;;4937416;28;20436;-51
2021/06/27 09:28:10;;;;;;;3.60;3.40;;;39.90;38.10;;;;;;4950898;28;20464;-52
2021/06/27 09:30:48;;;;;;;4.27;4.00;;;40.70;36.10;;;;;;4946604;28;20940;-53
2021/06/27 09:33:17;;;;;;;4.00;3.70;;;39.50;37.70;;;;;;4945797;28;20451;-51
2021/06/27 09:36:07;;;;;;;3.80;3.60;;;40.20;37.30;;;;;;4948718;28;20513;-52
2021/06/27 09:38:50;;;;;;;3.90;3.60;;;40.70;36.00;;;;;;4952329;28;20511;-51
2021/06/27 09:41:18;;;;;;;4.10;3.80;;;40.30;36.00;;;;;;4951018;28;20451;-51
2021/06/27 09:43:54;;;;;;;3.67;3.47;;;40.70;35.90;;;;;;4953522;28;20440;-51
2021/06/27 09:46:36;;;;;;;3.70;3.40;;;40.50;36.00;;;;;;4950467;28;20440;-51
2021/06/27 09:49:28;;;;;;;3.60;3.40;;;40.70;35.30;;;;;;4963755;28;21026;-51
2021/06/27 09:51:57;;;;;;;4.73;4.43;;;40.50;36.30;;;;;;4941169;28;20456;-52
2021/06/27 09:54:26;;;;;;;4.27;3.97;;;39.70;36.90;;;;;;4939874;28;20472;-52
2021/06/27 09:56:52;;;;;;;3.57;3.37;;;38.70;37.10;;;;;;4945735;28;21020;-51
2021/06/27 09:59:19;;;;;;;3.80;3.50;;;38.50;38.30;;;;;;4948856;28;20459;-52
2021/06/27 10:01:45;;;;;;;3.50;3.30;;;39.80;37.60;;;;;;4966556;28;20447;-52
2021/06/27 10:04:14;;;;;;;3.90;3.70;;;40.00;36.70;;;;;;4945686;28;20881;-53
2021/06/27 10:06:53;;;;;;;3.80;3.60;;;39.50;38.20;;;;;;4963772;28;20517;-52
2021/06/27 10:09:39;;;;;;;3.87;3.57;;;38.50;39.00;;;;;;4952185;28;20464;-52
2021/06/27 10:12:06;;;;;;;3.83;3.63;;;38.40;39.00;;;;;;4966329;28;20447;-52
2021/06/27 10:14:41;;;;;;;3.70;3.50;;;38.40;39.30;;;;;;4951386;28;20482;-51
2021/06/27 10:17:07;;;;;;;3.73;3.43;;;38.80;38.50;;;;;;4962381;28;20454;-52
2021/06/27 10:22:08;;;;;;;3.83;3.53;;;38.90;38.60;;;;;;5249704;23;21078;-60
2021/06/27 10:24:35;;;;;;;5.03;3.70;;;38.80;38.10;;;;;;4959257;28;20438;-61
2021/06/27 10:27:01;;;;;;;3.23;3.03;;;38.10;39.10;;;;;;4974468;28;20200;-60
2021/06/27 10:29:26;;;;;;;3.40;3.20;;;36.50;41.00;;;;;;4983721;28;20453;-58
2021/06/27 10:31:54;;;;;;;3.80;3.50;;;35.70;42.00;;;;;;4995125;28;20436;-59
2021/06/27 10:34:21;;;;;;;3.70;3.50;;;34.90;42.80;;;;;;4975984;28;20227;-59
2021/06/27 10:36:55;;;;;;;3.50;3.30;;;34.70;43.40;;;;;;4982108;28;20436;-58
2021/06/27 10:39:22;;;;;;;3.50;3.30;;;35.30;42.60;;;;;;4979382;28;20458;-60
2021/06/27 10:41:54;;;;;;;3.20;3.00;;;35.70;42.10;;;;;;4979195;28;20443;-60
2021/06/27 10:44:23;;;;;;;3.30;3.10;;;36.10;42.50;;;;;;4981101;28;20975;-62
2021/06/27 10:46:51;;;;;;;3.50;3.30;;;36.70;40.80;;;;;;4975546;28;20448;-61
2021/06/27 10:49:35;;;;;;;2.80;2.60;;;36.10;41.00;;;;;;4983322;28;20469;-59
2021/06/27 10:52:12;;;;;;;2.77;2.63;;;36.30;39.70;;;;;;4983925;28;20473;-58
2021/06/27 10:54:39;;;;;;;2.63;2.53;;;36.10;38.70;;;;;;4983313;28;20475;-61
2021/06/27 10:57:16;;;;;;;2.80;2.63;;;36.70;37.80;;;;;;4976846;28;20446;-59
2021/06/27 10:59:44;;;;;;;3.17;2.97;;;37.90;36.30;;;;;;4978691;28;20482;-60
2021/06/27 11:02:31;;;;;;;2.90;2.70;;;38.80;36.10;;;;;;4975807;28;20451;-59
2021/06/27 11:05:28;;;;;;;2.60;2.50;;;39.10;35.50;;;;;;4981809;28;20449;-59
2021/06/27 11:07:56;;;;;;;3.23;3.00;;;39.10;34.30;;;;;;4987809;28;20467;-63
2021/06/27 11:10:21;;;;;;;3.10;2.80;;;39.30;33.50;;;;;;4981329;28;20459;-60
2021/06/27 11:12:59;;;;;;;3.70;3.40;;;38.80;33.90;;;;;;4979009;28;21034;-59
2021/06/27 11:15:33;;;;;;;2.87;2.67;;;38.80;34.40;;;;;;4986131;28;20703;-60
2021/06/27 11:18:08;;;;;;;2.83;2.63;;;38.90;34.00;;;;;;4982394;28;20553;-60
2021/06/27 11:20:56;;;;;;;2.60;2.50;;;39.10;34.50;;;;;;4977177;28;20922;-60
2021/06/27 11:23:47;;;;;;;2.80;2.63;;;38.60;35.10;;;;;;4977012;28;20459;-59
2021/06/27 11:26:41;;;;;;;3.00;2.80;;;38.00;36.10;;;;;;4973107;28;20431;-59
2021/06/27 11:29:22;;;;;;;2.50;2.40;;;38.10;35.70;;;;;;4979352;28;20478;-61
2021/06/27 11:31:54;;;;;;;3.00;2.80;;;38.00;35.00;;;;;;4982091;28;20826;-60
2021/06/27 11:34:20;;;;;;;2.50;2.40;;;38.00;34.60;;;;;;4971693;28;20569;-59
2021/06/27 11:36:50;;;;;;;3.10;2.90;;;38.00;36.50;;;;;;4979348;28;20581;-60
2021/06/27 11:39:44;;;;;;;2.90;2.70;;;38.00;37.60;;;;;;4980013;28;20203;-61
2021/06/27 11:42:22;;;;;;;2.87;2.70;;;37.00;38.80;;;;;;4974651;28;20435;-59
2021/06/27 11:45:15;;;;;;;3.20;3.00;;;36.10;40.40;;;;;;4975430;28;20445;-60
2021/06/27 11:47:57;;;;;;;3.13;2.93;;;35.50;41.50;;;;;;4970481;28;20473;-58
2021/06/27 11:50:35;;;;;;;3.00;2.80;;;34.50;42.50;;;;;;4989411;28;20859;-59
2021/06/27 11:53:02;;;;;;;3.10;2.90;;;33.70;44.00;;;;;;4983378;28;20472;-59
2021/06/27 11:55:35;;;;;;;3.17;2.97;;;33.40;44.40;;;;;;4975319;28;20530;-60
2021/06/27 11:58:03;;;;;;;2.60;2.50;;;33.00;44.90;;;;;;4979185;28;20485;-60
2021/06/27 12:00:41;;;;;;;3.10;2.90;;;32.60;45.80;;;;;;4982810;28;20970;-59
2021/06/27 12:03:11;;;;;;;2.70;2.50;;;31.90;46.80;;;;;;4980302;28;20531;-59
2021/06/27 12:05:38;;;;;;;3.60;3.40;;;31.30;48.20;;;;;;4979670;28;20455;-61
2021/06/27 12:08:06;;;;;;;3.00;2.80;;;30.90;48.40;;;;;;4975270;28;21010;-60
2021/06/27 12:10:32;;;;;;;3.47;3.17;;;31.00;47.30;;;;;;4977199;28;20483;-60
2021/06/27 12:13:02;;;;;;;4.13;3.83;;;31.20;47.90;;;;;;4974294;28;20976;-60
2021/06/27 12:15:35;;;;;;;3.97;3.40;;;31.30;48.50;;;;;;4977302;28;20477;-59
2021/06/27 12:18:05;;;;;;;3.10;2.90;;;31.00;48.40;;;;;;4981984;28;20590;-60
2021/06/27 12:20:47;;;;;;;3.03;2.73;;;30.70;49.00;;;;;;4988636;28;20443;-60
2021/06/27 12:23:17;;;;;;;3.20;3.00;;;30.60;48.40;;;;;;4990255;28;20545;-59
2021/06/27 12:25:50;;;;;;;2.73;2.53;;;30.60;48.90;;;;;;4980489;28;20501;-58
2021/06/27 12:28:40;;;;;;;3.10;2.90;;;30.60;47.10;;;;;;4973869;28;20467;-59
2021/06/27 12:31:08;;;;;;;2.83;2.63;;;30.60;47.40;;;;;;4984125;28;20986;-58
2021/06/27 12:33:37;;;;;;;2.77;2.57;;;30.50;47.00;;;;;;4984555;28;21109;-58
2021/06/27 12:36:09;;;;;;;2.73;2.53;;;30.60;47.70;;;;;;4980079;28;20431;-58
2021/06/27 12:38:37;;;;;;;3.13;2.93;;;30.50;48.30;;;;;;4980637;28;20463;-57
2021/06/27 12:41:05;;;;;;;3.33;3.13;;;30.40;49.00;;;;;;4980199;28;20917;-58
2021/06/27 12:43:43;;;;;;;3.13;2.93;;;30.40;48.80;;;;;;4984395;28;20449;-58
2021/06/27 12:46:18;;;;;;;2.73;2.53;;;30.40;48.80;;;;;;4983783;28;20441;-58
2021/06/27 12:49:07;;;;;;;2.93;2.73;;;30.20;48.70;;;;;;4982783;28;20897;-57
2021/06/27 12:51:38;;;;;;;3.10;2.77;;;30.10;48.80;;;;;;4977389;28;20480;-55